Nearby METAR Reports

 

KSYN - Stanton, Minnesota, USA
Distance from station: NW 20mi, 33km
Updated: Mon, 21-Oct-2019 6:15pm CDT
Rain, Overcast
Rain, Overcast
 Wind from S
Wind: S 8 mph , 13 km/h
Temperature: 50°F , 10°C
Wind Chill: 47°F , 8°C
Dew Point: 46°F , 8°C
Humidity: 88%
Barometer: 29.13 inHg , 986.5 hPa
Summary: Rain
Clouds: Overcast
Visibility: 10 miles , 16 km
Cloud details: Mostly cloudy 2000 ft
Overcast 2900 ft
2019/10/21 23:15 KSYN 212315Z AUTO 18007KT 10SM RA BKN020 OVC029 10/08 A2913 RMK AO2 T00970080
KTOB - Dodge Center, Minnesota, USA
Distance from station: SSW 21mi, 34km
Updated: Mon, 21-Oct-2019 6:16pm CDT
Overcast
Overcast
 Wind from S
Wind: S 16 mph , 26 km/h
Temperature: 45°F , 7°C
Wind Chill: 38°F , 3°C
Dew Point: 43°F , 6°C
Humidity: 93%
Barometer: 29.18 inHg , 988.1 hPa
Clouds: Overcast
Visibility: 5 miles , 8 km
Cloud details: Partly cloudy 1500 ft
Mostly cloudy 3300 ft
Overcast 4200 ft
2019/10/21 23:16 KTOB 212316Z AUTO 18014KT 5SM UP SCT015 BKN033 OVC042 07/06 A2918 RMK AO2 P0001 P0001
K9MN - St Mary Hospital, Minnesota, USA
Distance from station: SSE 22mi, 35km
Updated: Mon, 21-Oct-2019 6:16pm CDT
Overcast
Overcast
 Wind from SSE
Wind: SSE 12 mph , 19 km/h, Gust: 24 mph , 39 km/h
Temperature: 48°F , 9°C
Wind Chill: 43°F , 6°C
Dew Point: 46°F , 8°C
Humidity: 94%
Barometer: 29.21 inHg , 989.2 hPa
Clouds: Overcast
Visibility: 10 miles , 16 km
Cloud details: Mostly cloudy 1700 ft
Overcast 2200 ft
2019/10/21 23:16 K9MN 212316Z AUTO 16010G21KT 10SM BKN017 OVC022 09/08 A2921 RMK AO1 T00920075
 
KRGK - Red Wing, Minnesota, USA
Distance from station: NNE 22mi, 35km
Updated: Mon, 21-Oct-2019 6:18pm CDT
Rain, Overcast
Rain, Overcast
 Wind from SSW
Wind: SSW 16 mph , 26 km/h, Gust: 28 mph , 44 km/h
Temperature: 52°F , 11°C
Dew Point: 36°F , 2°C
Humidity: 54%
Barometer: 29.17 inHg , 987.8 hPa
Summary: Rain
Clouds: Overcast
Visibility: 10 miles , 16 km
Cloud details: Partly cloudy 2500 ft
Partly cloudy 3800 ft
Overcast 5000 ft
2019/10/21 23:18 KRGK 212318Z AUTO 21014G24KT 10SM RA SCT025 SCT038 OVC050 11/02 A2917 RMK AO2
KRST - Rochester, Minnesota, USA
Distance from station: SSE 29mi, 47km
Updated: Mon, 21-Oct-2019 5:54pm CDT
Light rain, Overcast
Light rain, Overcast
 Wind from S
Wind: S 18 mph , 30 km/h, Gust: 31 mph , 50 km/h
Temperature: 48°F , 9°C
Wind Chill: 41°F , 5°C
Dew Point: 45°F , 7°C
Humidity: 87%
Barometer: 29.21 inHg , 989.2 hPa
Summary: Light rain
Clouds: Overcast
Visibility: 10 miles , 16 km
Cloud details: Overcast 1800 ft
2019/10/21 22:54 KRST 212254Z 19016G27KT 10SM -RA OVC018 09/07 A2921 RMK AO2 PK WND 18028/2216 RAB51 SLP896 P0000 T00890067
KOWA - Owatonna, Minnesota, USA
Distance from station: WSW 31mi, 50km
Updated: Fri, 18-Oct-2019 9:49am CDT
NOT Current
Clear
Clear
 Wind from SE
Wind: SE 20 mph , 31 km/h, Gust: 26 mph , 43 km/h
Temperature: 50°F , 10°C
Wind Chill: 44°F , 7°C
Dew Point: 41°F , 5°C
Humidity: 71%
Barometer: 29.74 inHg , 1007.1 hPa
Clouds: Clear
Visibility: 10 miles , 16 km
2019/10/18 14:49 KOWA 181449Z AUTO 14017G23KT 10SM CLR 10/05 A2974 RMK AO2
 
KFBL - Faribault Muni, Minnesota, USA
Distance from station: W 32mi, 51km
Updated: Thu, 20-Sep-2018 6:41pm CDT
NOT Current

 Wind from SSE
Wind: SSE 18 mph , 30 km/h, Gust: 45 mph , 72 km/h
Visibility: 4 miles , 6 km
2018/09/20 23:41 KFBL 202341Z AUTO 15016G39KT 122V182 4SM +VCTSRA SCT010 BKN070 21/21 A2951 RMK AO2 P0008 LTG DSNT ALQDS
KSGS - South St Paul, Minnesota, USA
Distance from station: NNW 43mi, 69km
Updated: Mon, 21-Oct-2019 6:15pm CDT
Mostly cloudy
Mostly cloudy
 Wind from S
Wind: S 8 mph , 13 km/h, Gust: 17 mph , 28 km/h
Temperature: 52°F , 11°C
Dew Point: 45°F , 7°C
Humidity: 77%
Barometer: 29.13 inHg , 986.5 hPa
Clouds: Mostly cloudy
Visibility: 10 miles , 16 km
Cloud details: Mostly cloudy 3600 ft
2019/10/21 23:15 KSGS 212315Z AUTO 18007G15KT 10SM BKN036 11/07 A2913 RMK AO2 T01100073
KAUM - Austin Muni, Minnesota, USA
Distance from station: SSW 46mi, 73km
Updated: Mon, 21-Oct-2019 6:15pm CDT
Overcast
Overcast
 Wind from SW
Wind: SW 15 mph , 24 km/h
Temperature: 48°F , 9°C
Wind Chill: 42°F , 6°C
Dew Point: 41°F , 5°C
Humidity: 76%
Barometer: 29.21 inHg , 989.2 hPa
Clouds: Overcast
Visibility: 1 3/4 miles , 2.8 km
Cloud details: Partly cloudy 1400 ft
Partly cloudy 2400 ft
Overcast 3600 ft
2019/10/21 23:15 KAUM 212315Z AUTO 22013KT 1 3/4SM UP SCT014 SCT024 OVC036 09/05 A2921 RMK AO2 P0001 P0001
 
KACQ - Waseca, Minnesota, USA
Distance from station: WSW 46mi, 75km
Updated: Mon, 21-Oct-2019 5:59pm CDT
Overcast
Overcast
 Wind from SSW
Wind: SSW 10 mph , 17 km/h
Temperature: 45°F , 7°C
Wind Chill: 40°F , 4°C
Dew Point: 43°F , 6°C
Humidity: 93%
Barometer: 29.16 inHg , 987.5 hPa
Clouds: Overcast
Visibility: 10 miles , 16 km
Cloud details: Partly cloudy 1200 ft
Mostly cloudy 2600 ft
Overcast 3600 ft
2019/10/21 22:59 KACQ 212259Z AUTO 21009KT 10SM SCT012 BKN026 OVC036 07/06 A2916 RMK AO2
KSTP - St. Paul, Minnesota, USA
Distance from station: NNW 47mi, 76km
Updated: Mon, 21-Oct-2019 5:53pm CDT
Overcast
Overcast
 Wind from S
Wind: S 9 mph , 15 km/h
Temperature: 52°F , 11°C
Dew Point: 45°F , 7°C
Humidity: 77%
Barometer: 29.13 inHg , 986.5 hPa
Clouds: Overcast
Visibility: 10 miles , 16 km
Cloud details: Few Clouds 1900 ft
Mostly cloudy 3400 ft
Overcast 5500 ft
2019/10/21 22:53 KSTP 212253Z 18008KT 10SM FEW019 BKN034 OVC055 11/07 A2913 RMK AO2 SLP863 T01060072
KMSP - Minneapolis, Minnesota, USA
Distance from station: NW 49mi, 78km
Updated: Mon, 21-Oct-2019 5:53pm CDT
Mostly cloudy
Mostly cloudy
 Wind from S
Wind: S 13 mph , 20 km/h, Gust: 18 mph , 30 km/h
Temperature: 52°F , 11°C
Dew Point: 45°F , 7°C
Humidity: 77%
Barometer: 29.12 inHg , 986.1 hPa
Clouds: Mostly cloudy
Visibility: 10 miles , 16 km
Cloud details: Few Clouds 2300 ft
Mostly cloudy 3500 ft
2019/10/21 22:53 KMSP 212253Z 18011G16KT 10SM FEW023 BKN035 11/07 A2912 RMK AO2 SLP862 T01110072